Time;durP1;ratioP1;P1;durP2;ratioP2;P2;SDS_P1;SDS_P2;PMS_P1;PMS_P2;Temp;Humidity;BMP_temperature;BMP_pressure;BME280_temperature;BME280_humidity;BME280_pressure;Samples;Min_cycle;Max_cycle;Signal;HPM_P1;HPM_P2
2022/04/06 00:00:10;;;;;;;;;;;10.10;99.90;;;;;;5052234;28;19968;-62
2022/04/06 00:02:39;;;;;;;;;;;10.10;99.90;;;;;;5051915;28;20059;-62
2022/04/06 00:05:09;;;;;;;;;;;10.10;99.90;;;;;;5052052;28;20015;-62
2022/04/06 00:07:36;;;;;;;;;;;10.10;99.90;;;;;;5052385;28;19965;-62
2022/04/06 00:10:05;;;;;;;;;;;10.10;99.90;;;;;;5052043;28;19972;-62
2022/04/06 00:12:33;;;;;;;;;;;10.10;99.90;;;;;;5051671;28;19987;-63
2022/04/06 00:15:00;;;;;;;;;;;10.20;99.90;;;;;;5053676;28;19960;-62
2022/04/06 00:17:28;;;;;;;;;;;10.20;99.90;;;;;;5051749;28;19975;-61
2022/04/06 00:19:56;;;;;;;;;;;10.20;99.90;;;;;;5052093;28;20355;-62
2022/04/06 00:22:25;;;;;;;;;;;10.20;99.90;;;;;;5051259;28;20022;-62
2022/04/06 00:24:53;;;;;;;;;;;10.20;99.90;;;;;;5051426;28;20019;-63
2022/04/06 00:27:21;;;;;;;;;;;10.20;99.90;;;;;;5052040;28;20047;-62
2022/04/06 00:29:49;;;;;;;;;;;10.30;99.90;;;;;;5052109;28;20059;-62
2022/04/06 00:32:16;;;;;;;;;;;10.30;99.90;;;;;;5051096;28;20056;-62
2022/04/06 00:37:30;;;;;;;;;;;10.20;99.90;;;;;;5051576;28;20011;-61
2022/04/06 00:39:58;;;;;;;;;;;10.10;99.90;;;;;;5051828;28;19969;-62
2022/04/06 00:42:26;;;;;;;;;;;10.10;99.90;;;;;;5051018;28;20487;-61
2022/04/06 00:44:53;;;;;;;;;;;10.10;99.90;;;;;;5051490;28;20014;-63
2022/04/06 00:47:21;;;;;;;;;;;10.10;99.90;;;;;;5051270;28;19964;-63
2022/04/06 00:49:49;;;;;;;;;;;10.00;99.90;;;;;;5051767;28;20011;-63
2022/04/06 00:52:17;;;;;;;;;;;10.00;99.90;;;;;;5050989;28;19965;-62
2022/04/06 00:54:47;;;;;;;;;;;10.10;99.90;;;;;;5051097;28;20063;-63
2022/04/06 00:57:15;;;;;;;;;;;10.10;99.90;;;;;;5051668;28;20029;-62
2022/04/06 00:59:54;;;;;;;;;;;10.10;99.90;;;;;;5051480;28;20339;-63
2022/04/06 01:02:21;;;;;;;;;;;10.10;99.90;;;;;;5051028;28;19971;-63
2022/04/06 01:04:49;;;;;;;;;;;10.10;99.90;;;;;;5051593;28;20059;-63
2022/04/06 01:07:18;;;;;;;;;;;10.10;99.90;;;;;;5051526;28;20425;-62
2022/04/06 01:09:47;;;;;;;;;;;10.10;99.90;;;;;;5051569;28;19964;-63
2022/04/06 01:12:15;;;;;;;;;;;10.00;99.90;;;;;;5051721;28;19969;-63
2022/04/06 01:14:43;;;;;;;;;;;10.00;99.90;;;;;;5055011;28;20453;-63
2022/04/06 01:17:11;;;;;;;;;;;10.00;99.90;;;;;;5055293;28;20056;-62
2022/04/06 01:19:40;;;;;;;;;;;10.00;99.90;;;;;;5055428;28;19969;-62
2022/04/06 01:22:10;;;;;;;;;;;9.90;99.90;;;;;;5054785;28;20504;-62
2022/04/06 01:24:37;;;;;;;;;;;9.90;99.90;;;;;;5054999;28;20480;-62
2022/04/06 01:27:06;;;;;;;;;;;9.90;99.90;;;;;;5055244;28;20010;-62
2022/04/06 01:29:34;;;;;;;;;;;9.90;99.90;;;;;;5055211;28;20014;-62
2022/04/06 01:32:07;;;;;;;;;;;9.90;99.90;;;;;;5054608;28;20441;-61
2022/04/06 01:34:35;;;;;;;;;;;9.90;99.90;;;;;;5055168;28;19965;-62
2022/04/06 01:37:03;;;;;;;;;;;9.90;99.90;;;;;;5055219;28;20059;-62
2022/04/06 01:39:32;;;;;;;;;;;9.80;99.90;;;;;;5055448;28;20011;-62
2022/04/06 01:42:01;;;;;;;;;;;9.80;99.90;;;;;;5054463;28;20064;-62
2022/04/06 01:44:29;;;;;;;;;;;9.80;99.90;;;;;;5054620;28;19964;-62
2022/04/06 01:46:57;;;;;;;;;;;9.90;99.90;;;;;;5055117;28;20011;-62
2022/04/06 01:52:14;;;;;;;;;;;9.80;99.90;;;;;;5054309;28;20444;-62
2022/04/06 01:54:45;;;;;;;;;;;9.90;99.90;;;;;;5054794;28;20007;-62
2022/04/06 01:57:13;;;;;;;;;;;9.90;99.90;;;;;;5054849;28;19964;-62
2022/04/06 01:59:41;;;;;;;;;;;9.90;99.90;;;;;;5054689;28;20484;-62
2022/04/06 02:02:11;;;;;;;;;;;9.90;99.90;;;;;;5054043;28;19965;-62
2022/04/06 02:04:39;;;;;;;;;;;9.90;99.90;;;;;;5054648;28;19999;-62
2022/04/06 02:07:07;;;;;;;;;;;9.90;99.90;;;;;;5055401;28;20389;-62
2022/04/06 02:09:36;;;;;;;;;;;10.00;99.90;;;;;;5055222;28;20064;-63
2022/04/06 02:12:06;;;;;;;;;;;10.00;99.90;;;;;;5053823;28;19965;-62
2022/04/06 02:14:34;;;;;;;;;;;9.90;99.90;;;;;;5053975;28;20433;-62
2022/04/06 02:17:03;;;;;;;;;;;9.90;99.90;;;;;;5054013;28;20067;-62
2022/04/06 02:19:31;;;;;;;;;;;9.80;99.90;;;;;;5054347;28;20056;-62
2022/04/06 02:21:59;;;;;;;;;;;9.80;99.90;;;;;;5053696;28;20048;-63
2022/04/06 02:24:27;;;;;;;;;;;9.80;99.90;;;;;;5053816;28;20067;-62
2022/04/06 02:26:54;;;;;;;;;;;9.80;99.90;;;;;;5054407;28;19965;-63
2022/04/06 02:29:23;;;;;;;;;;;9.70;99.90;;;;;;5054500;28;20374;-62
2022/04/06 02:31:52;;;;;;;;;;;9.80;99.90;;;;;;5054235;28;20022;-62
2022/04/06 02:34:20;;;;;;;;;;;9.80;99.90;;;;;;5053549;28;19969;-62
2022/04/06 02:36:48;;;;;;;;;;;9.80;99.90;;;;;;5056562;28;20010;-62
2022/04/06 02:39:15;;;;;;;;;;;9.80;99.90;;;;;;5073307;28;20006;-62
2022/04/06 02:41:43;;;;;;;;;;;9.80;99.90;;;;;;5073172;28;20026;-62
2022/04/06 02:44:11;;;;;;;;;;;9.80;99.90;;;;;;5071130;28;20525;-62
2022/04/06 02:46:40;;;;;;;;;;;9.80;99.90;;;;;;5055355;28;20006;-61
2022/04/06 02:49:08;;;;;;;;;;;9.90;99.90;;;;;;5053732;28;20010;-63
2022/04/06 02:51:35;;;;;;;;;;;10.00;99.90;;;;;;5053681;28;20024;-63
2022/04/06 02:54:03;;;;;;;;;;;9.90;99.90;;;;;;5053226;28;19968;-63
2022/04/06 02:56:31;;;;;;;;;;;10.00;99.90;;;;;;5053388;28;19968;-63
2022/04/06 02:59:00;;;;;;;;;;;10.00;99.90;;;;;;5053837;28;20433;-62
2022/04/06 03:01:28;;;;;;;;;;;10.10;99.90;;;;;;5036016;28;19968;-62
2022/04/06 03:03:57;;;;;;;;;;;10.10;99.90;;;;;;5052772;28;19972;-62
2022/04/06 03:06:25;;;;;;;;;;;10.10;99.90;;;;;;5053382;28;19996;-62
2022/04/06 03:08:52;;;;;;;;;;;10.10;99.90;;;;;;5053520;28;20017;-63
2022/04/06 03:11:22;;;;;;;;;;;10.20;99.90;;;;;;5053216;28;20467;-62
2022/04/06 03:13:50;;;;;;;;;;;10.30;99.90;;;;;;5052824;28;20011;-62
2022/04/06 03:16:18;;;;;;;;;;;10.40;99.90;;;;;;5052774;28;20456;-63
2022/04/06 03:18:46;;;;;;;;;;;10.50;99.90;;;;;;5053078;28;20417;-63
2022/04/06 03:21:15;;;;;;;;;;;10.40;99.90;;;;;;5053427;28;19963;-62
2022/04/06 03:23:43;;;;;;;;;;;10.40;99.90;;;;;;5052237;28;20530;-63
2022/04/06 03:26:11;;;;;;;;;;;10.30;99.90;;;;;;5053470;28;20010;-63
2022/04/06 03:28:39;;;;;;;;;;;10.30;99.90;;;;;;5052963;28;20428;-61
2022/04/06 03:31:07;;;;;;;;;;;10.20;99.90;;;;;;5035181;28;19967;-62
2022/04/06 03:33:35;;;;;;;;;;;10.20;99.90;;;;;;5052369;28;19963;-62
2022/04/06 03:36:03;;;;;;;;;;;10.10;99.90;;;;;;5052082;28;20472;-61
2022/04/06 03:38:33;;;;;;;;;;;10.20;99.90;;;;;;5052902;28;19965;-63
2022/04/06 03:41:00;;;;;;;;;;;10.20;99.90;;;;;;5053100;28;19966;-63
2022/04/06 03:43:29;;;;;;;;;;;10.20;99.90;;;;;;5052091;28;19984;-62
2022/04/06 03:45:56;;;;;;;;;;;10.20;99.90;;;;;;5055820;28;20056;-62
2022/04/06 03:48:24;;;;;;;;;;;10.20;99.90;;;;;;5052544;28;19961;-62
2022/04/06 03:50:52;;;;;;;;;;;10.30;99.90;;;;;;5052534;28;19966;-63
2022/04/06 03:53:19;;;;;;;;;;;10.40;99.90;;;;;;5052056;28;19984;-63
2022/04/06 03:55:49;;;;;;;;;;;10.30;99.90;;;;;;5052279;28;19961;-63
2022/04/06 03:58:16;;;;;;;;;;;10.40;99.90;;;;;;5052536;28;19964;-63
2022/04/06 04:00:44;;;;;;;;;;;10.30;99.90;;;;;;5052556;28;20510;-62
2022/04/06 04:03:12;;;;;;;;;;;10.30;99.90;;;;;;5051474;28;20011;-63
2022/04/06 04:05:40;;;;;;;;;;;10.30;99.90;;;;;;5052161;28;19960;-63
2022/04/06 04:08:08;;;;;;;;;;;10.30;99.90;;;;;;5052597;28;19967;-63
2022/04/06 04:10:35;;;;;;;;;;;10.30;99.90;;;;;;5052158;28;20002;-62
2022/04/06 04:13:04;;;;;;;;;;;10.30;99.90;;;;;;5051613;28;20050;-62
2022/04/06 04:15:32;;;;;;;;;;;10.20;99.90;;;;;;5051909;28;20049;-62
2022/04/06 04:18:00;;;;;;;;;;;10.20;99.90;;;;;;5051566;28;20422;-63
2022/04/06 04:20:28;;;;;;;;;;;10.20;99.90;;;;;;5061292;28;20385;-62
2022/04/06 04:22:55;;;;;;;;;;;10.20;99.90;;;;;;5047499;28;20424;-62
2022/04/06 04:25:23;;;;;;;;;;;10.20;99.90;;;;;;5049609;28;19969;-62
2022/04/06 04:27:51;;;;;;;;;;;10.10;99.90;;;;;;5047764;28;20053;-62
2022/04/06 04:30:21;;;;;;;;;;;10.20;99.90;;;;;;5051958;28;20049;-62
2022/04/06 04:32:49;;;;;;;;;;;10.20;99.90;;;;;;5050590;28;19962;-63
2022/04/06 04:35:17;;;;;;;;;;;10.30;99.90;;;;;;5050447;28;19969;-63
2022/04/06 04:37:44;;;;;;;;;;;10.20;99.90;;;;;;5050530;28;19977;-62
2022/04/06 04:40:12;;;;;;;;;;;10.30;99.90;;;;;;5052630;28;20087;-62
2022/04/06 04:42:40;;;;;;;;;;;10.30;99.90;;;;;;5050852;28;20433;-63
2022/04/06 04:45:08;;;;;;;;;;;10.50;99.90;;;;;;5051855;28;19962;-62
2022/04/06 04:47:38;;;;;;;;;;;10.40;99.90;;;;;;5048969;28;20764;-63
2022/04/06 04:50:06;;;;;;;;;;;10.40;99.90;;;;;;5049436;28;20973;-63
2022/04/06 04:52:34;;;;;;;;;;;10.40;99.90;;;;;;5044071;28;20514;-63
2022/04/06 04:55:01;;;;;;;;;;;10.40;99.90;;;;;;5048547;28;19987;-64
2022/04/06 04:57:29;;;;;;;;;;;10.40;99.90;;;;;;5049008;28;19965;-63
2022/04/06 04:59:57;;;;;;;;;;;10.40;99.90;;;;;;5052639;28;20063;-63
2022/04/06 05:02:25;;;;;;;;;;;10.40;99.90;;;;;;5050887;28;20409;-63
2022/04/06 05:04:54;;;;;;;;;;;10.40;99.90;;;;;;5050396;28;20085;-63
2022/04/06 05:07:21;;;;;;;;;;;10.40;99.90;;;;;;5049857;28;20065;-62
2022/04/06 05:09:49;;;;;;;;;;;10.40;99.90;;;;;;5050194;28;19959;-63
2022/04/06 05:12:17;;;;;;;;;;;10.50;99.90;;;;;;5050967;28;19965;-62
2022/04/06 05:14:45;;;;;;;;;;;10.40;99.90;;;;;;5051391;28;20432;-62
2022/04/06 05:17:13;;;;;;;;;;;10.30;99.90;;;;;;5048818;28;20016;-62
2022/04/06 05:19:40;;;;;;;;;;;10.20;99.90;;;;;;5051497;28;20002;-62
2022/04/06 05:22:09;;;;;;;;;;;10.30;99.90;;;;;;5049152;28;20451;-63
2022/04/06 05:24:37;;;;;;;;;;;10.20;99.90;;;;;;5051482;28;20006;-62
2022/04/06 05:27:05;;;;;;;;;;;10.30;99.90;;;;;;5048702;28;19959;-62
2022/04/06 05:29:34;;;;;;;;;;;10.20;99.90;;;;;;5047962;28;20340;-63
2022/04/06 05:32:02;;;;;;;;;;;10.20;99.90;;;;;;5049081;28;20060;-62
2022/04/06 05:34:30;;;;;;;;;;;10.10;99.90;;;;;;5050702;28;20001;-62
2022/04/06 05:36:58;;;;;;;;;;;10.10;99.90;;;;;;5047458;28;20041;-62
2022/04/06 05:39:27;;;;;;;;;;;10.10;99.90;;;;;;5049642;28;19955;-63
2022/04/06 05:41:55;;;;;;;;;;;10.10;99.90;;;;;;5051166;28;20498;-61
2022/04/06 05:44:23;;;;;;;;;;;10.20;99.90;;;;;;5050971;28;20075;-62
2022/04/06 05:46:51;;;;;;;;;;;10.20;99.90;;;;;;5050793;28;19959;-62
2022/04/06 05:49:18;;;;;;;;;;;10.20;99.90;;;;;;5051192;28;20054;-63
2022/04/06 05:51:46;;;;;;;;;;;10.20;99.90;;;;;;5050971;28;19967;-63
2022/04/06 05:54:14;;;;;;;;;;;10.20;99.90;;;;;;5050038;28;20054;-62
2022/04/06 05:56:43;;;;;;;;;;;10.20;99.90;;;;;;5051203;28;20073;-63
2022/04/06 05:59:11;;;;;;;;;;;10.20;99.90;;;;;;5053465;28;19966;-63
2022/04/06 06:01:38;;;;;;;;;;;10.30;99.90;;;;;;5055075;28;19959;-63
2022/04/06 06:04:06;;;;;;;;;;;10.30;99.90;;;;;;5053672;28;20009;-63
2022/04/06 06:06:35;;;;;;;;;;;10.30;99.90;;;;;;5057821;28;19962;-63
2022/04/06 06:09:04;;;;;;;;;;;10.30;99.90;;;;;;5060095;28;20065;-62
2022/04/06 06:11:31;;;;;;;;;;;10.30;99.90;;;;;;5054492;28;19994;-63
2022/04/06 06:14:02;;;;;;;;;;;10.30;99.90;;;;;;5053826;28;19963;-63
2022/04/06 06:16:30;;;;;;;;;;;10.30;99.90;;;;;;5054124;28;20006;-62
2022/04/06 06:18:58;;;;;;;;;;;10.30;99.90;;;;;;5054252;28;19959;-63
2022/04/06 06:21:26;;;;;;;;;;;10.30;99.90;;;;;;5053775;28;19978;-63
2022/04/06 06:23:55;;;;;;;;;;;10.30;99.90;;;;;;5035568;28;20017;-62
2022/04/06 06:26:23;;;;;;;;;;;10.40;99.90;;;;;;5053877;28;20490;-62
2022/04/06 06:28:51;;;;;;;;;;;10.50;99.90;;;;;;5054172;28;20374;-62
2022/04/06 06:31:20;;;;;;;;;;;10.50;99.90;;;;;;5053938;28;19998;-63
2022/04/06 06:33:48;;;;;;;;;;;10.50;99.90;;;;;;5053353;28;20057;-63
2022/04/06 06:36:16;;;;;;;;;;;10.40;99.90;;;;;;5053915;28;20502;-63
2022/04/06 06:38:43;;;;;;;;;;;10.40;99.90;;;;;;5053734;28;19991;-62
2022/04/06 06:41:11;;;;;;;;;;;10.50;99.90;;;;;;5053904;28;20001;-63
2022/04/06 06:43:39;;;;;;;;;;;10.50;99.90;;;;;;5053474;28;20378;-63
2022/04/06 06:46:06;;;;;;;;;;;10.50;99.90;;;;;;5054018;28;20028;-62
2022/04/06 06:48:35;;;;;;;;;;;10.50;99.90;;;;;;5054067;28;20507;-62
2022/04/06 06:51:03;;;;;;;;;;;10.60;99.90;;;;;;5053866;28;20063;-63
2022/04/06 06:53:31;;;;;;;;;;;10.70;99.90;;;;;;5052844;28;19963;-62
2022/04/06 06:55:59;;;;;;;;;;;10.70;99.90;;;;;;5053833;28;20045;-62
2022/04/06 06:58:27;;;;;;;;;;;10.70;99.90;;;;;;5054209;28;20460;-62
2022/04/06 07:00:54;;;;;;;;;;;10.80;99.90;;;;;;5053745;28;20073;-63
2022/04/06 07:03:22;;;;;;;;;;;10.90;99.90;;;;;;5052920;28;19963;-62
2022/04/06 07:05:52;;;;;;;;;;;11.00;99.90;;;;;;5057875;28;20436;-62
2022/04/06 07:08:20;;;;;;;;;;;11.00;99.90;;;;;;5053374;28;19994;-61
2022/04/06 07:10:49;;;;;;;;;;;11.10;99.90;;;;;;5052204;28;20001;-63
2022/04/06 07:13:17;;;;;;;;;;;11.10;99.90;;;;;;5052494;28;19978;-62
2022/04/06 07:15:45;;;;;;;;;;;11.20;99.90;;;;;;5053367;28;19924;-63
2022/04/06 07:18:14;;;;;;;;;;;11.20;99.90;;;;;;5053359;28;19925;-63
2022/04/06 07:20:42;;;;;;;;;;;11.20;99.90;;;;;;5053125;28;20423;-62
2022/04/06 07:23:12;;;;;;;;;;;11.20;99.90;;;;;;5052309;28;20492;-63
2022/04/06 07:25:40;;;;;;;;;;;11.30;99.90;;;;;;5052987;28;19978;-62
2022/04/06 07:28:08;;;;;;;;;;;11.20;99.90;;;;;;5053323;28;19975;-62
2022/04/06 07:30:36;;;;;;;;;;;11.20;99.90;;;;;;5053281;28;19990;-62
2022/04/06 07:33:03;;;;;;;;;;;11.20;99.90;;;;;;5052342;28;19924;-62
2022/04/06 07:35:32;;;;;;;;;;;11.20;99.90;;;;;;5054497;28;20444;-62
2022/04/06 07:38:00;;;;;;;;;;;11.20;99.90;;;;;;5052535;28;19948;-63
2022/04/06 07:40:29;;;;;;;;;;;11.20;99.90;;;;;;5052895;28;19932;-62
2022/04/06 07:42:56;;;;;;;;;;;11.30;99.90;;;;;;5051730;28;19929;-62
2022/04/06 07:45:29;;;;;;;;;;;11.30;99.90;;;;;;5052415;28;19924;-62
2022/04/06 07:47:57;;;;;;;;;;;11.30;99.90;;;;;;5052374;28;20016;-62
2022/04/06 07:50:25;;;;;;;;;;;11.40;99.90;;;;;;5052138;28;20059;-62
2022/04/06 07:52:53;;;;;;;;;;;11.40;99.90;;;;;;5051830;28;20378;-62
2022/04/06 07:55:21;;;;;;;;;;;11.60;99.90;;;;;;5052420;28;20421;-62
2022/04/06 07:57:50;;;;;;;;;;;12.00;99.90;;;;;;5052428;28;19970;-63
2022/04/06 08:00:18;;;;;;;;;;;12.00;99.90;;;;;;5052531;28;19988;-62
2022/04/06 08:02:46;;;;;;;;;;;12.20;99.90;;;;;;5051430;28;20031;-62
2022/04/06 08:05:14;;;;;;;;;;;12.60;99.90;;;;;;5055782;28;19928;-62
2022/04/06 08:07:43;;;;;;;;;;;12.90;99.90;;;;;;5054046;28;19925;-63
2022/04/06 08:10:12;;;;;;;;;;;13.00;99.90;;;;;;5052428;28;20295;-62
2022/04/06 08:12:40;;;;;;;;;;;13.00;99.90;;;;;;5051572;28;19924;-62
2022/04/06 08:15:10;;;;;;;;;;;12.70;99.90;;;;;;5051906;28;20369;-63
2022/04/06 08:17:39;;;;;;;;;;;12.50;99.90;;;;;;5052253;28;19944;-62
2022/04/06 08:20:08;;;;;;;;;;;12.60;99.90;;;;;;5052292;28;19956;-62
2022/04/06 08:22:36;;;;;;;;;;;12.50;99.90;;;;;;5050973;28;19931;-61
2022/04/06 08:25:04;;;;;;;;;;;12.40;99.90;;;;;;5052044;28;19964;-62
2022/04/06 08:27:51;;;;;;;;;;;12.30;99.90;;;;;;5052071;28;19925;-63
2022/04/06 08:30:22;;;;;;;;;;;12.20;99.90;;;;;;5052117;28;20370;-62
2022/04/06 08:32:50;;;;;;;;;;;12.20;99.90;;;;;;5051017;28;19925;-62
2022/04/06 08:35:18;;;;;;;;;;;12.20;99.90;;;;;;5054673;28;19931;-63
2022/04/06 08:37:46;;;;;;;;;;;12.10;99.90;;;;;;5051644;28;19928;-62
2022/04/06 08:40:14;;;;;;;;;;;12.10;99.90;;;;;;5051722;28;19925;-62
2022/04/06 08:42:42;;;;;;;;;;;12.10;99.90;;;;;;5050888;28;19924;-63
2022/04/06 08:45:10;;;;;;;;;;;12.20;99.90;;;;;;5051839;28;19935;-61
2022/04/06 08:47:44;;;;;;;;;;;12.30;99.90;;;;;;5051901;28;20362;-63
2022/04/06 08:50:12;;;;;;;;;;;12.40;99.90;;;;;;5051747;28;20032;-63
2022/04/06 08:52:40;;;;;;;;;;;12.40;99.90;;;;;;5050380;28;19924;-61
2022/04/06 08:55:27;;;;;;;;;;;12.50;99.90;;;;;;5051866;28;20015;-62
2022/04/06 08:57:56;;;;;;;;;;;12.50;99.90;;;;;;5051671;28;20358;-63
2022/04/06 09:00:24;;;;;;;;;;;12.60;99.90;;;;;;5051643;28;19970;-63
2022/04/06 09:02:54;;;;;;;;;;;12.70;99.90;;;;;;5050784;28;20377;-62
2022/04/06 09:05:22;;;;;;;;;;;12.90;99.90;;;;;;5051634;28;19925;-63
2022/04/06 09:07:51;;;;;;;;;;;12.80;99.90;;;;;;5051358;28;20039;-63
2022/04/06 09:10:27;;;;;;;;;;;12.80;99.90;;;;;;5051501;28;19979;-60
2022/04/06 09:13:07;;;;;;;;;;;12.60;99.90;;;;;;5050802;28;19968;-62
2022/04/06 09:15:35;;;;;;;;;;;12.50;99.90;;;;;;5051759;28;19932;-63
2022/04/06 09:18:04;;;;;;;;;;;12.40;99.90;;;;;;5051404;28;19936;-62
2022/04/06 09:20:32;;;;;;;;;;;12.50;99.90;;;;;;5051471;28;19972;-62
2022/04/06 09:23:01;;;;;;;;;;;12.90;99.90;;;;;;5050714;28;19924;-62
2022/04/06 09:25:33;;;;;;;;;;;13.20;99.90;;;;;;5051063;28;20340;-62
2022/04/06 09:28:06;;;;;;;;;;;13.10;99.90;;;;;;5052629;28;19972;-62
2022/04/06 09:30:34;;;;;;;;;;;13.10;99.90;;;;;;5051469;28;19967;-62
2022/04/06 09:33:04;;;;;;;;;;;13.20;99.90;;;;;;5051230;28;19967;-63
2022/04/06 09:35:34;;;;;;;;;;;13.30;99.90;;;;;;5059274;28;19925;-62
2022/04/06 09:38:11;;;;;;;;;;;13.30;99.90;;;;;;5054965;28;19925;-63
2022/04/06 09:40:39;;;;;;;;;;;13.50;99.90;;;;;;5055136;28;19925;-62
2022/04/06 09:43:08;;;;;;;;;;;13.40;99.90;;;;;;5054264;28;19948;-62
2022/04/06 09:48:22;;;;;;;;;;;13.30;99.90;;;;;;5054942;28;19932;-63
2022/04/06 09:50:54;;;;;;;;;;;13.20;99.90;;;;;;5054935;28;19929;-63
2022/04/06 09:53:24;;;;;;;;;;;13.20;99.90;;;;;;5054276;28;20330;-63
2022/04/06 09:55:54;;;;;;;;;;;13.20;99.90;;;;;;5048273;28;19960;-63
2022/04/06 09:58:22;;;;;;;;;;;13.10;99.90;;;;;;5048236;28;20356;-63
2022/04/06 10:00:51;;;;;;;;;;;13.00;99.90;;;;;;5047997;28;20042;-61
2022/04/06 10:03:20;;;;;;;;;;;13.00;99.90;;;;;;5047377;28;19925;-60
2022/04/06 10:05:50;;;;;;;;;;;13.10;99.90;;;;;;5049364;28;20409;-62
2022/04/06 10:08:19;;;;;;;;;;;13.20;99.90;;;;;;5055982;28;20406;-63
2022/04/06 10:10:47;;;;;;;;;;;13.20;99.90;;;;;;5054700;28;20309;-63
2022/04/06 10:13:15;;;;;;;;;;;13.20;99.90;;;;;;5053824;28;19931;-62
2022/04/06 10:16:03;;;;;;;;;;;13.00;99.90;;;;;;5054247;28;19928;-63
2022/04/06 10:18:33;;;;;;;;;;;13.10;99.90;;;;;;5054247;28;19972;-63
2022/04/06 10:21:04;;;;;;;;;;;13.10;99.90;;;;;;5054558;28;19956;-61
2022/04/06 10:23:43;;;;;;;;;;;13.20;99.90;;;;;;5053830;28;19925;-62
2022/04/06 10:26:34;;;;;;;;;;;13.40;99.90;;;;;;5054566;28;19968;-62
2022/04/06 10:29:04;;;;;;;;;;;13.60;99.90;;;;;;5054173;28;20408;-62
2022/04/06 10:31:32;;;;;;;;;;;13.70;99.90;;;;;;5054230;28;20005;-62
2022/04/06 10:34:14;;;;;;;;;;;13.70;99.90;;;;;;5053531;28;19925;-62
2022/04/06 10:36:45;;;;;;;;;;;13.70;99.90;;;;;;5059127;28;20457;-63
2022/04/06 10:39:13;;;;;;;;;;;13.80;99.90;;;;;;5053735;28;19924;-61
2022/04/06 10:42:02;;;;;;;;;;;13.70;99.90;;;;;;5054233;28;19925;-63
2022/04/06 10:44:37;;;;;;;;;;;13.60;99.90;;;;;;5047207;28;19974;-62
2022/04/06 10:47:06;;;;;;;;;;;13.50;99.90;;;;;;5054428;28;19983;-64
2022/04/06 10:49:34;;;;;;;;;;;13.50;99.90;;;;;;5053518;28;19964;-63
2022/04/06 10:52:16;;;;;;;;;;;13.50;99.90;;;;;;5053309;28;19964;-62
2022/04/06 10:54:46;;;;;;;;;;;13.50;99.90;;;;;;5053639;28;19964;-62
2022/04/06 10:57:14;;;;;;;;;;;13.60;99.90;;;;;;5053827;28;19991;-63
2022/04/06 10:59:41;;;;;;;;;;;13.60;99.90;;;;;;5053668;28;20313;-62
2022/04/06 11:02:16;;;;;;;;;;;13.50;99.90;;;;;;5052959;28;20442;-63
2022/04/06 11:04:45;;;;;;;;;;;13.50;99.90;;;;;;5053538;28;19924;-63
2022/04/06 11:07:15;;;;;;;;;;;13.50;99.90;;;;;;5056881;28;20386;-62
2022/04/06 11:12:30;;;;;;;;;;;13.90;99.90;;;;;;5052815;28;19936;-63
2022/04/06 11:15:17;;;;;;;;;;;14.10;99.90;;;;;;5072686;28;19928;-63
2022/04/06 11:17:45;;;;;;;;;;;14.10;99.90;;;;;;5072423;28;20053;-63
2022/04/06 11:20:14;;;;;;;;;;;14.00;99.90;;;;;;5072677;28;19928;-63
2022/04/06 11:22:42;;;;;;;;;;;13.90;99.90;;;;;;5071523;28;20416;-63
2022/04/06 11:25:12;;;;;;;;;;;13.70;99.90;;;;;;5072331;28;19967;-63
2022/04/06 11:27:42;;;;;;;;;;;13.80;99.90;;;;;;5072193;28;19932;-62
2022/04/06 11:30:12;;;;;;;;;;;14.10;99.90;;;;;;5072586;28;20380;-62
2022/04/06 11:32:41;;;;;;;;;;;14.40;99.90;;;;;;5071314;28;19943;-63
2022/04/06 11:35:09;;;;;;;;;;;14.70;99.90;;;;;;5071893;28;20020;-63
2022/04/06 11:37:41;;;;;;;;;;;14.90;99.90;;;;;;5054237;28;19975;-63
2022/04/06 11:40:09;;;;;;;;;;;15.10;99.90;;;;;;5052678;28;19929;-63
2022/04/06 11:42:37;;;;;;;;;;;15.20;99.90;;;;;;5051907;28;19979;-63
2022/04/06 11:45:06;;;;;;;;;;;15.10;99.90;;;;;;5052806;28;20015;-63
2022/04/06 11:47:35;;;;;;;;;;;15.00;99.90;;;;;;5052689;28;19975;-62
2022/04/06 11:50:05;;;;;;;;;;;14.80;99.90;;;;;;5052710;28;20385;-63
2022/04/06 11:52:34;;;;;;;;;;;14.80;99.90;;;;;;5051838;28;19991;-62
2022/04/06 11:55:02;;;;;;;;;;;14.50;99.90;;;;;;5053017;28;19984;-63
2022/04/06 11:57:34;;;;;;;;;;;14.50;99.90;;;;;;5051988;28;19983;-63
2022/04/06 12:00:03;;;;;;;;;;;14.40;99.90;;;;;;5052624;28;19968;-62
2022/04/06 12:02:45;;;;;;;;;;;14.40;99.90;;;;;;5052069;28;19935;-63
2022/04/06 12:05:14;;;;;;;;;;;14.30;99.90;;;;;;5055874;28;19924;-63
2022/04/06 12:07:42;;;;;;;;;;;14.20;99.90;;;;;;5053003;28;19979;-62
2022/04/06 12:10:10;;;;;;;;;;;14.20;99.90;;;;;;5052620;28;20604;-63
2022/04/06 12:12:38;;;;;;;;;;;14.00;99.90;;;;;;5051748;28;20017;-62
2022/04/06 12:15:18;;;;;;;;;;;13.80;99.90;;;;;;5052085;28;20382;-62
2022/04/06 12:17:46;;;;;;;;;;;13.70;99.90;;;;;;5045370;28;20019;-63
2022/04/06 12:20:22;;;;;;;;;;;13.90;99.90;;;;;;5071506;28;19994;-62
2022/04/06 12:23:00;;;;;;;;;;;14.00;99.90;;;;;;5070900;28;20374;-63
2022/04/06 12:25:28;;;;;;;;;;;14.10;99.90;;;;;;5070973;28;20038;-63
2022/04/06 12:28:12;;;;;;;;;;;14.40;99.90;;;;;;5071146;28;19959;-63
2022/04/06 12:30:50;;;;;;;;;;;14.30;99.90;;;;;;5071374;28;19929;-63
2022/04/06 12:33:31;;;;;;;;;;;14.20;99.90;;;;;;5070513;28;20385;-63
2022/04/06 12:36:06;;;;;;;;;;;14.20;99.90;;;;;;5064229;28;19929;-61
2022/04/06 12:38:34;;;;;;;;;;;14.30;99.90;;;;;;5051506;28;19968;-62
2022/04/06 12:41:05;;;;;;;;;;;14.50;99.90;;;;;;5051868;28;19925;-63
2022/04/06 12:43:47;;;;;;;;;;;14.70;99.90;;;;;;5051350;28;20131;-63
2022/04/06 12:46:35;;;;;;;;;;;14.70;99.90;;;;;;5051809;28;19955;-63
2022/04/06 12:49:21;;;;;;;;;;;14.70;99.90;;;;;;5051379;28;19982;-63
2022/04/06 12:52:02;;;;;;;;;;;14.70;99.90;;;;;;5051808;28;19976;-63
2022/04/06 12:54:31;;;;;;;;;;;14.70;99.90;;;;;;5051844;28;19929;-63
2022/04/06 12:57:03;;;;;;;;;;;14.60;99.90;;;;;;5051782;28;20027;-62
2022/04/06 12:59:36;;;;;;;;;;;14.50;99.90;;;;;;5051277;28;20354;-63
2022/04/06 13:02:04;;;;;;;;;;;14.30;99.90;;;;;;5051254;28;20012;-62
2022/04/06 13:04:33;;;;;;;;;;;14.40;99.90;;;;;;5051768;28;19932;-63
2022/04/06 13:07:02;;;;;;;;;;;15.00;99.90;;;;;;5057873;28;20023;-63
2022/04/06 13:09:29;;;;;;;;;;;15.40;99.50;;;;;;5054545;28;19929;-62
2022/04/06 13:11:57;;;;;;;;;;;15.20;99.40;;;;;;5055361;28;19925;-62
2022/04/06 13:14:27;;;;;;;;;;;15.20;99.60;;;;;;5055758;28;20317;-62
2022/04/06 13:16:55;;;;;;;;;;;15.10;99.50;;;;;;5055660;28;19975;-63
2022/04/06 13:19:23;;;;;;;;;;;15.80;99.20;;;;;;5055428;28;19929;-63
2022/04/06 13:21:50;;;;;;;;;;;16.00;98.10;;;;;;5055424;28;19968;-64
2022/04/06 13:24:22;;;;;;;;;;;15.90;98.50;;;;;;5054433;28;19928;-64
2022/04/06 13:26:55;;;;;;;;;;;16.00;97.70;;;;;;5055467;28;20346;-63
2022/04/06 13:29:23;;;;;;;;;;;15.80;97.80;;;;;;5055372;28;19971;-63
2022/04/06 13:31:51;;;;;;;;;;;16.30;97.70;;;;;;5055508;28;19979;-63
2022/04/06 13:34:20;;;;;;;;;;;17.00;96.70;;;;;;5054591;28;19925;-63
2022/04/06 13:36:48;;;;;;;;;;;17.50;95.90;;;;;;5058490;28;19986;-63
2022/04/06 13:39:16;;;;;;;;;;;17.80;95.20;;;;;;5054930;28;20391;-63
2022/04/06 13:41:48;;;;;;;;;;;17.50;94.60;;;;;;5055279;28;19959;-63
2022/04/06 13:44:18;;;;;;;;;;;17.10;95.00;;;;;;5054773;28;19925;-63
2022/04/06 13:46:46;;;;;;;;;;;16.70;95.70;;;;;;5048641;28;19971;-63
2022/04/06 13:49:13;;;;;;;;;;;16.40;96.10;;;;;;5048001;28;19925;-64
2022/04/06 13:51:41;;;;;;;;;;;16.60;96.30;;;;;;5074035;28;19932;-64
2022/04/06 13:54:09;;;;;;;;;;;16.80;95.40;;;;;;5073502;28;19924;-63
2022/04/06 13:56:37;;;;;;;;;;;16.60;95.90;;;;;;5074073;28;19974;-63
2022/04/06 13:59:06;;;;;;;;;;;16.90;95.90;;;;;;5073897;28;20027;-63
2022/04/06 14:01:36;;;;;;;;;;;17.00;95.60;;;;;;5074206;28;19931;-63
2022/04/06 14:04:04;;;;;;;;;;;16.70;95.90;;;;;;5047377;28;19929;-63
2022/04/06 14:06:32;;;;;;;;;;;16.40;96.00;;;;;;5055510;28;20186;-63
2022/04/06 14:09:00;;;;;;;;;;;15.80;96.90;;;;;;5053797;28;19955;-64
2022/04/06 14:11:29;;;;;;;;;;;15.60;97.70;;;;;;5073885;28;19928;-63
2022/04/06 14:13:57;;;;;;;;;;;15.60;97.70;;;;;;5047161;28;19964;-63
2022/04/06 14:16:26;;;;;;;;;;;15.70;97.60;;;;;;5073621;28;19960;-64
2022/04/06 14:18:55;;;;;;;;;;;15.40;98.00;;;;;;5073177;28;19931;-61
2022/04/06 14:21:23;;;;;;;;;;;15.40;97.80;;;;;;5048003;28;20409;-63
2022/04/06 14:23:52;;;;;;;;;;;15.20;98.30;;;;;;5053715;28;20023;-63
2022/04/06 14:26:19;;;;;;;;;;;15.10;98.70;;;;;;5047673;28;19963;-63
2022/04/06 14:28:47;;;;;;;;;;;15.10;98.60;;;;;;5047517;28;19970;-63
2022/04/06 14:31:21;;;;;;;;;;;15.60;98.90;;;;;;5048539;28;20393;-63
2022/04/06 14:33:50;;;;;;;;;;;15.30;98.50;;;;;;5053547;28;19925;-62
2022/04/06 14:36:19;;;;;;;;;;;15.30;98.70;;;;;;5059192;28;19978;-62
2022/04/06 14:38:47;;;;;;;;;;;15.10;98.60;;;;;;5053595;28;20409;-64
2022/04/06 14:41:15;;;;;;;;;;;14.80;98.70;;;;;;5054198;28;19960;-62